West Bloomfield, MI (48323)

11:15 AM EDT on August 30, 2016 (GMT -0400)
North Potomac Green | | Change Station

Elev 951 ft 42.56 °N, 83.37 °W | Updated 5 minutes ago

Mostly Cloudy
Mostly Cloudy
79.5 °F
Feels Like 80 °F
N
0.0
Wind Variable Wind from WSW

Today
High -- | Low -- °F
--% Chance of Precip.
Yesterday
High -- | Low -- °F
Precip. -- in
Pressure 30.14 in
Visibility 10.0 miles
Clouds Few 1500 ft
Scattered Clouds 3500 ft
Mostly Cloudy 24000 ft
Heat Index 80 °F
Dew Point 59 °F
Humidity 49%
Rainfall 0.00 in
Snow Depth Not available.
6:56 AM 8:10 PM
Waning Crescent, 3% visible
METAR KPTK 301453Z 23006KT 10SM FEW015 SCT035 BKN240 25/17 A3016 RMK AO2 SLP206 T02500167 58008
Pressure 30.14 in
Visibility 10.0 miles
Clouds Few 1500 ft
Scattered Clouds 3500 ft
Mostly Cloudy 24000 ft
Heat Index 80 °F
Dew Point 59 °F
Humidity 49%
Rainfall 0.00 in
Snow Depth Not available.
6:56 AM 8:10 PM
Waning Crescent, 3% visible
METAR KPTK 301453Z 23006KT 10SM FEW015 SCT035 BKN240 25/17 A3016 RMK AO2 SLP206 T02500167 58008

10-Day Weather Forecast

Almanac

Astronomy

Aug. 30, 2016 Rise Set
Actual Time
Civil Twilight
Nautical Twilight
Astronomical Twilight
Moon
Length of Visible Light
Length of Day
Tomorrow will be .
, % of the Moon is Illuminated

Today's Extremes

State Highs State Lows

Community

WunderPhotos

Upload Photos

1,935,855 photos uploaded!

WunderBlog® & News

Nearby

Air Quality

  Air Quality AQ Index Pollutant
Not available.

Snow Depth

Station Depth Elevation

Earthquake Activity

City Distance Mag. Time & Date
Minimum magnitude displayed is 2.5.

Coastal Water Temperatures

Place Temperature

Stations

Nearby Weather Stations

Station Location Temp. Windchill Dew Point Humidity Wind Precip. Elev Updated Type
                   

Watches & Warnings

There are currently no watches in effect.